sensor_id;sensor_type;location;lat;lon;timestamp;temperature;humidity
5304;DHT22;2674;49.722;10.892;2022-07-23T00:02:06;21.40;97.20
5304;DHT22;2674;49.722;10.892;2022-07-23T00:04:33;21.40;97.30
5304;DHT22;2674;49.722;10.892;2022-07-23T00:06:59;21.40;97.40
5304;DHT22;2674;49.722;10.892;2022-07-23T00:09:25;21.40;97.80
5304;DHT22;2674;49.722;10.892;2022-07-23T00:11:50;21.40;97.90
5304;DHT22;2674;49.722;10.892;2022-07-23T00:14:16;21.40;97.70
5304;DHT22;2674;49.722;10.892;2022-07-23T00:16:42;21.40;97.40
5304;DHT22;2674;49.722;10.892;2022-07-23T00:19:08;21.50;97.40
5304;DHT22;2674;49.722;10.892;2022-07-23T00:21:34;21.40;97.20
5304;DHT22;2674;49.722;10.892;2022-07-23T00:24:00;21.50;97.20
5304;DHT22;2674;49.722;10.892;2022-07-23T00:26:26;21.50;97.40
5304;DHT22;2674;49.722;10.892;2022-07-23T00:28:52;21.50;97.70
5304;DHT22;2674;49.722;10.892;2022-07-23T00:31:18;21.40;97.50
5304;DHT22;2674;49.722;10.892;2022-07-23T00:33:44;21.50;97.60
5304;DHT22;2674;49.722;10.892;2022-07-23T00:36:10;21.40;97.70
5304;DHT22;2674;49.722;10.892;2022-07-23T00:38:36;21.40;98.00
5304;DHT22;2674;49.722;10.892;2022-07-23T00:41:01;21.40;98.00
5304;DHT22;2674;49.722;10.892;2022-07-23T00:43:27;21.30;98.40
5304;DHT22;2674;49.722;10.892;2022-07-23T00:45:53;21.30;99.30
5304;DHT22;2674;49.722;10.892;2022-07-23T00:48:19;21.20;99.00
5304;DHT22;2674;49.722;10.892;2022-07-23T00:50:45;21.20;99.10
5304;DHT22;2674;49.722;10.892;2022-07-23T00:53:11;21.20;99.30
5304;DHT22;2674;49.722;10.892;2022-07-23T00:55:38;21.10;99.50
5304;DHT22;2674;49.722;10.892;2022-07-23T00:58:04;21.10;99.90
5304;DHT22;2674;49.722;10.892;2022-07-23T01:00:30;21.00;99.90
5304;DHT22;2674;49.722;10.892;2022-07-23T01:02:56;21.00;99.90
5304;DHT22;2674;49.722;10.892;2022-07-23T01:05:22;21.00;99.90
5304;DHT22;2674;49.722;10.892;2022-07-23T01:07:50;20.90;99.90
5304;DHT22;2674;49.722;10.892;2022-07-23T01:10:16;20.90;99.90
5304;DHT22;2674;49.722;10.892;2022-07-23T01:13:05;20.80;99.90
5304;DHT22;2674;49.722;10.892;2022-07-23T01:15:32;20.80;99.90
5304;DHT22;2674;49.722;10.892;2022-07-23T01:17:58;20.80;99.90
5304;DHT22;2674;49.722;10.892;2022-07-23T01:20:24;20.80;99.90
5304;DHT22;2674;49.722;10.892;2022-07-23T01:22:51;20.70;99.90
5304;DHT22;2674;49.722;10.892;2022-07-23T01:25:17;20.70;99.90
5304;DHT22;2674;49.722;10.892;2022-07-23T01:27:44;20.60;99.90
5304;DHT22;2674;49.722;10.892;2022-07-23T01:30:10;20.60;99.90
5304;DHT22;2674;49.722;10.892;2022-07-23T01:32:36;20.50;99.90
5304;DHT22;2674;49.722;10.892;2022-07-23T01:35:03;20.50;99.90
5304;DHT22;2674;49.722;10.892;2022-07-23T01:37:29;20.40;99.90
5304;DHT22;2674;49.722;10.892;2022-07-23T01:39:55;20.40;99.90
5304;DHT22;2674;49.722;10.892;2022-07-23T01:42:21;20.40;99.90
5304;DHT22;2674;49.722;10.892;2022-07-23T01:44:47;20.40;99.90
5304;DHT22;2674;49.722;10.892;2022-07-23T01:47:13;20.30;99.90
5304;DHT22;2674;49.722;10.892;2022-07-23T01:49:39;20.30;99.90
5304;DHT22;2674;49.722;10.892;2022-07-23T01:52:05;20.30;99.90
5304;DHT22;2674;49.722;10.892;2022-07-23T01:54:34;20.30;99.90
5304;DHT22;2674;49.722;10.892;2022-07-23T01:57:00;20.40;99.90
5304;DHT22;2674;49.722;10.892;2022-07-23T01:59:27;20.30;99.90
5304;DHT22;2674;49.722;10.892;2022-07-23T02:01:53;20.30;99.90
5304;DHT22;2674;49.722;10.892;2022-07-23T02:04:23;20.30;99.90
5304;DHT22;2674;49.722;10.892;2022-07-23T02:06:50;20.30;99.90
5304;DHT22;2674;49.722;10.892;2022-07-23T02:09:16;20.30;99.90
5304;DHT22;2674;49.722;10.892;2022-07-23T02:11:42;20.30;99.90
5304;DHT22;2674;49.722;10.892;2022-07-23T02:14:08;20.30;99.90
5304;DHT22;2674;49.722;10.892;2022-07-23T02:16:34;20.30;99.90
5304;DHT22;2674;49.722;10.892;2022-07-23T02:19:00;20.30;99.90
5304;DHT22;2674;49.722;10.892;2022-07-23T02:21:26;20.30;99.90
5304;DHT22;2674;49.722;10.892;2022-07-23T02:23:52;20.30;99.90
5304;DHT22;2674;49.722;10.892;2022-07-23T02:26:18;20.20;99.90
5304;DHT22;2674;49.722;10.892;2022-07-23T02:28:43;20.20;99.90
5304;DHT22;2674;49.722;10.892;2022-07-23T02:31:09;20.20;99.90
5304;DHT22;2674;49.722;10.892;2022-07-23T02:33:35;20.20;99.90
5304;DHT22;2674;49.722;10.892;2022-07-23T02:36:01;20.20;99.90
5304;DHT22;2674;49.722;10.892;2022-07-23T02:38:27;20.10;99.90
5304;DHT22;2674;49.722;10.892;2022-07-23T02:40:53;20.20;99.90
5304;DHT22;2674;49.722;10.892;2022-07-23T02:43:19;20.20;99.90
5304;DHT22;2674;49.722;10.892;2022-07-23T02:45:45;20.20;99.90
5304;DHT22;2674;49.722;10.892;2022-07-23T02:48:11;20.20;99.90
5304;DHT22;2674;49.722;10.892;2022-07-23T02:50:38;20.20;99.90
5304;DHT22;2674;49.722;10.892;2022-07-23T02:53:04;20.20;99.90
5304;DHT22;2674;49.722;10.892;2022-07-23T02:55:30;20.30;99.90
5304;DHT22;2674;49.722;10.892;2022-07-23T02:57:57;20.20;99.90
5304;DHT22;2674;49.722;10.892;2022-07-23T03:00:23;20.00;99.90
5304;DHT22;2674;49.722;10.892;2022-07-23T03:02:49;20.20;99.90
5304;DHT22;2674;49.722;10.892;2022-07-23T03:05:15;20.10;99.90
5304;DHT22;2674;49.722;10.892;2022-07-23T03:07:41;20.10;99.90
5304;DHT22;2674;49.722;10.892;2022-07-23T03:10:07;20.00;99.90
5304;DHT22;2674;49.722;10.892;2022-07-23T03:12:33;20.00;99.90
5304;DHT22;2674;49.722;10.892;2022-07-23T03:14:59;20.00;99.90
5304;DHT22;2674;49.722;10.892;2022-07-23T03:17:24;20.00;99.90
5304;DHT22;2674;49.722;10.892;2022-07-23T03:19:50;20.00;99.90
5304;DHT22;2674;49.722;10.892;2022-07-23T03:22:16;20.00;99.90
5304;DHT22;2674;49.722;10.892;2022-07-23T03:24:42;19.90;99.90
5304;DHT22;2674;49.722;10.892;2022-07-23T03:27:25;19.80;99.90
5304;DHT22;2674;49.722;10.892;2022-07-23T03:29:56;19.80;99.90
5304;DHT22;2674;49.722;10.892;2022-07-23T03:32:23;19.80;99.90
5304;DHT22;2674;49.722;10.892;2022-07-23T03:34:50;19.70;99.90
5304;DHT22;2674;49.722;10.892;2022-07-23T03:37:17;19.70;99.90
5304;DHT22;2674;49.722;10.892;2022-07-23T03:39:43;19.70;99.90
5304;DHT22;2674;49.722;10.892;2022-07-23T03:42:09;19.60;99.90
5304;DHT22;2674;49.722;10.892;2022-07-23T03:44:35;19.60;99.90
5304;DHT22;2674;49.722;10.892;2022-07-23T03:47:03;19.60;99.90
5304;DHT22;2674;49.722;10.892;2022-07-23T03:49:29;19.60;99.90
5304;DHT22;2674;49.722;10.892;2022-07-23T03:51:54;19.50;99.90
5304;DHT22;2674;49.722;10.892;2022-07-23T03:54:20;19.50;99.90
5304;DHT22;2674;49.722;10.892;2022-07-23T03:56:47;19.50;99.90
5304;DHT22;2674;49.722;10.892;2022-07-23T03:59:13;19.50;99.90
5304;DHT22;2674;49.722;10.892;2022-07-23T04:01:39;19.40;99.90
5304;DHT22;2674;49.722;10.892;2022-07-23T04:04:05;19.40;99.90
5304;DHT22;2674;49.722;10.892;2022-07-23T04:06:31;19.30;99.90
5304;DHT22;2674;49.722;10.892;2022-07-23T04:08:58;19.40;99.90
5304;DHT22;2674;49.722;10.892;2022-07-23T04:11:24;19.40;99.90
5304;DHT22;2674;49.722;10.892;2022-07-23T04:13:50;19.30;99.90
5304;DHT22;2674;49.722;10.892;2022-07-23T04:16:16;19.30;99.90
5304;DHT22;2674;49.722;10.892;2022-07-23T04:18:42;19.30;99.90
5304;DHT22;2674;49.722;10.892;2022-07-23T04:21:07;19.40;99.90
5304;DHT22;2674;49.722;10.892;2022-07-23T04:23:33;19.40;99.90
5304;DHT22;2674;49.722;10.892;2022-07-23T04:25:59;19.50;99.90
5304;DHT22;2674;49.722;10.892;2022-07-23T04:28:26;19.40;99.90
5304;DHT22;2674;49.722;10.892;2022-07-23T04:30:52;19.60;99.90
5304;DHT22;2674;49.722;10.892;2022-07-23T04:33:17;19.70;99.90
5304;DHT22;2674;49.722;10.892;2022-07-23T04:35:44;19.80;99.90
5304;DHT22;2674;49.722;10.892;2022-07-23T04:38:09;19.90;99.90
5304;DHT22;2674;49.722;10.892;2022-07-23T04:40:35;20.00;99.90
5304;DHT22;2674;49.722;10.892;2022-07-23T04:43:01;20.10;99.90
5304;DHT22;2674;49.722;10.892;2022-07-23T04:45:27;20.30;99.90
5304;DHT22;2674;49.722;10.892;2022-07-23T04:47:53;20.40;99.90
5304;DHT22;2674;49.722;10.892;2022-07-23T04:50:19;20.60;99.90
5304;DHT22;2674;49.722;10.892;2022-07-23T04:52:50;20.60;99.90
5304;DHT22;2674;49.722;10.892;2022-07-23T04:55:16;20.60;99.90
5304;DHT22;2674;49.722;10.892;2022-07-23T04:57:42;20.70;99.90
5304;DHT22;2674;49.722;10.892;2022-07-23T05:00:09;20.90;99.90
5304;DHT22;2674;49.722;10.892;2022-07-23T05:02:35;21.00;99.90
5304;DHT22;2674;49.722;10.892;2022-07-23T05:05:01;21.20;99.90
5304;DHT22;2674;49.722;10.892;2022-07-23T05:07:26;21.40;99.90
5304;DHT22;2674;49.722;10.892;2022-07-23T05:14:56;21.60;99.90
5304;DHT22;2674;49.722;10.892;2022-07-23T05:17:22;21.80;99.90
5304;DHT22;2674;49.722;10.892;2022-07-23T05:19:47;22.00;99.90
5304;DHT22;2674;49.722;10.892;2022-07-23T05:22:13;22.20;99.90
5304;DHT22;2674;49.722;10.892;2022-07-23T05:24:39;22.50;99.90
5304;DHT22;2674;49.722;10.892;2022-07-23T05:27:05;22.80;99.90
5304;DHT22;2674;49.722;10.892;2022-07-23T05:29:31;23.00;99.90
5304;DHT22;2674;49.722;10.892;2022-07-23T05:31:57;23.20;99.90
5304;DHT22;2674;49.722;10.892;2022-07-23T05:34:23;23.40;99.90
5304;DHT22;2674;49.722;10.892;2022-07-23T05:36:48;23.50;99.90
5304;DHT22;2674;49.722;10.892;2022-07-23T05:39:14;23.50;99.90
5304;DHT22;2674;49.722;10.892;2022-07-23T05:41:40;23.50;99.90
5304;DHT22;2674;49.722;10.892;2022-07-23T05:44:06;23.50;99.90
5304;DHT22;2674;49.722;10.892;2022-07-23T05:46:32;23.50;99.90
5304;DHT22;2674;49.722;10.892;2022-07-23T05:48:58;23.50;99.90
5304;DHT22;2674;49.722;10.892;2022-07-23T05:51:24;23.40;99.90
5304;DHT22;2674;49.722;10.892;2022-07-23T05:53:51;23.60;99.90
5304;DHT22;2674;49.722;10.892;2022-07-23T05:56:18;23.60;99.90
5304;DHT22;2674;49.722;10.892;2022-07-23T05:58:44;23.60;99.90
5304;DHT22;2674;49.722;10.892;2022-07-23T06:01:10;23.60;99.90
5304;DHT22;2674;49.722;10.892;2022-07-23T06:03:38;23.60;99.90
5304;DHT22;2674;49.722;10.892;2022-07-23T06:06:04;23.50;99.90
5304;DHT22;2674;49.722;10.892;2022-07-23T06:08:30;23.50;99.90
5304;DHT22;2674;49.722;10.892;2022-07-23T06:10:56;23.50;99.90
5304;DHT22;2674;49.722;10.892;2022-07-23T06:13:22;23.50;99.90
5304;DHT22;2674;49.722;10.892;2022-07-23T06:15:48;23.50;99.90
5304;DHT22;2674;49.722;10.892;2022-07-23T06:23:21;23.70;99.90
5304;DHT22;2674;49.722;10.892;2022-07-23T06:25:47;23.80;99.90
5304;DHT22;2674;49.722;10.892;2022-07-23T06:28:13;24.10;99.90
5304;DHT22;2674;49.722;10.892;2022-07-23T06:30:39;24.20;99.90
5304;DHT22;2674;49.722;10.892;2022-07-23T06:33:05;24.40;99.90
5304;DHT22;2674;49.722;10.892;2022-07-23T06:35:31;24.50;99.90
5304;DHT22;2674;49.722;10.892;2022-07-23T06:37:57;24.60;99.90
5304;DHT22;2674;49.722;10.892;2022-07-23T06:45:26;24.50;99.90
5304;DHT22;2674;49.722;10.892;2022-07-23T06:47:52;24.60;99.90
5304;DHT22;2674;49.722;10.892;2022-07-23T06:55:21;25.20;99.90
5304;DHT22;2674;49.722;10.892;2022-07-23T06:57:47;25.10;99.90
5304;DHT22;2674;49.722;10.892;2022-07-23T07:00:13;25.00;99.90
5304;DHT22;2674;49.722;10.892;2022-07-23T07:02:39;24.90;99.90
5304;DHT22;2674;49.722;10.892;2022-07-23T07:12:51;24.90;99.90
5304;DHT22;2674;49.722;10.892;2022-07-23T07:15:16;25.00;99.90
5304;DHT22;2674;49.722;10.892;2022-07-23T07:17:42;24.90;99.90
5304;DHT22;2674;49.722;10.892;2022-07-23T07:20:09;24.70;99.90
5304;DHT22;2674;49.722;10.892;2022-07-23T07:22:35;24.50;99.90
5304;DHT22;2674;49.722;10.892;2022-07-23T07:25:01;24.40;99.90
5304;DHT22;2674;49.722;10.892;2022-07-23T07:27:27;24.20;99.90
5304;DHT22;2674;49.722;10.892;2022-07-23T07:29:53;24.00;99.90
5304;DHT22;2674;49.722;10.892;2022-07-23T07:47:32;22.00;99.90
5304;DHT22;2674;49.722;10.892;2022-07-23T07:49:57;21.80;99.90
5304;DHT22;2674;49.722;10.892;2022-07-23T07:52:23;21.80;99.90
5304;DHT22;2674;49.722;10.892;2022-07-23T07:54:49;21.70;99.90
5304;DHT22;2674;49.722;10.892;2022-07-23T07:57:15;21.60;99.90
5304;DHT22;2674;49.722;10.892;2022-07-23T07:59:41;21.50;99.90
5304;DHT22;2674;49.722;10.892;2022-07-23T08:02:07;21.40;99.90
5304;DHT22;2674;49.722;10.892;2022-07-23T08:04:33;21.40;99.90
5304;DHT22;2674;49.722;10.892;2022-07-23T08:06:58;21.30;99.90
5304;DHT22;2674;49.722;10.892;2022-07-23T08:09:24;21.30;99.90
5304;DHT22;2674;49.722;10.892;2022-07-23T08:11:50;21.30;99.90
5304;DHT22;2674;49.722;10.892;2022-07-23T08:14:17;21.30;99.90
5304;DHT22;2674;49.722;10.892;2022-07-23T08:16:43;21.30;99.90
5304;DHT22;2674;49.722;10.892;2022-07-23T08:19:09;21.20;99.90
5304;DHT22;2674;49.722;10.892;2022-07-23T08:21:35;21.20;99.90
5304;DHT22;2674;49.722;10.892;2022-07-23T08:24:01;21.30;99.90
5304;DHT22;2674;49.722;10.892;2022-07-23T08:26:27;21.30;99.90
5304;DHT22;2674;49.722;10.892;2022-07-23T08:28:53;21.40;99.90
5304;DHT22;2674;49.722;10.892;2022-07-23T08:31:19;21.40;99.90
5304;DHT22;2674;49.722;10.892;2022-07-23T08:33:45;21.50;99.90
5304;DHT22;2674;49.722;10.892;2022-07-23T08:36:10;21.60;99.90
5304;DHT22;2674;49.722;10.892;2022-07-23T08:38:36;21.70;99.90
5304;DHT22;2674;49.722;10.892;2022-07-23T08:41:02;21.80;99.90
5304;DHT22;2674;49.722;10.892;2022-07-23T08:43:32;21.90;99.90
5304;DHT22;2674;49.722;10.892;2022-07-23T08:46:00;22.10;99.90
5304;DHT22;2674;49.722;10.892;2022-07-23T08:48:29;22.20;99.90
5304;DHT22;2674;49.722;10.892;2022-07-23T08:51:00;22.30;99.90
5304;DHT22;2674;49.722;10.892;2022-07-23T08:53:28;22.40;99.90
5304;DHT22;2674;49.722;10.892;2022-07-23T08:55:57;22.50;99.90
5304;DHT22;2674;49.722;10.892;2022-07-23T08:58:23;22.60;99.90
5304;DHT22;2674;49.722;10.892;2022-07-23T09:00:50;22.70;99.90
5304;DHT22;2674;49.722;10.892;2022-07-23T09:03:21;22.80;99.90
5304;DHT22;2674;49.722;10.892;2022-07-23T09:05:48;22.90;99.90
5304;DHT22;2674;49.722;10.892;2022-07-23T09:08:17;23.00;99.90
5304;DHT22;2674;49.722;10.892;2022-07-23T09:13:28;23.40;99.90
5304;DHT22;2674;49.722;10.892;2022-07-23T09:15:56;23.60;99.90
5304;DHT22;2674;49.722;10.892;2022-07-23T09:21:11;24.00;99.90
5304;DHT22;2674;49.722;10.892;2022-07-23T09:29:07;24.10;99.90
5304;DHT22;2674;49.722;10.892;2022-07-23T09:32:03;24.10;99.90
5304;DHT22;2674;49.722;10.892;2022-07-23T09:34:35;24.20;99.90
5304;DHT22;2674;49.722;10.892;2022-07-23T09:37:20;24.20;99.90
5304;DHT22;2674;49.722;10.892;2022-07-23T09:39:47;24.40;99.90
5304;DHT22;2674;49.722;10.892;2022-07-23T09:42:22;24.60;99.90
5304;DHT22;2674;49.722;10.892;2022-07-23T09:44:56;24.70;99.90
5304;DHT22;2674;49.722;10.892;2022-07-23T09:47:24;24.90;99.90
5304;DHT22;2674;49.722;10.892;2022-07-23T09:52:34;24.90;99.90
5304;DHT22;2674;49.722;10.892;2022-07-23T09:55:02;25.10;99.90
5304;DHT22;2674;49.722;10.892;2022-07-23T09:57:29;25.30;99.90
5304;DHT22;2674;49.722;10.892;2022-07-23T10:00:05;25.30;99.90
5304;DHT22;2674;49.722;10.892;2022-07-23T10:02:33;25.20;99.90
5304;DHT22;2674;49.722;10.892;2022-07-23T10:05:01;25.10;99.90
5304;DHT22;2674;49.722;10.892;2022-07-23T10:07:27;25.20;99.90
5304;DHT22;2674;49.722;10.892;2022-07-23T10:09:58;25.20;99.90
5304;DHT22;2674;49.722;10.892;2022-07-23T10:12:25;25.30;99.90
5304;DHT22;2674;49.722;10.892;2022-07-23T10:15:10;25.40;99.90
5304;DHT22;2674;49.722;10.892;2022-07-23T10:17:36;25.30;99.90
5304;DHT22;2674;49.722;10.892;2022-07-23T10:20:03;25.30;99.90
5304;DHT22;2674;49.722;10.892;2022-07-23T10:22:34;25.40;99.90
5304;DHT22;2674;49.722;10.892;2022-07-23T10:25:22;25.60;99.90
5304;DHT22;2674;49.722;10.892;2022-07-23T10:33:57;26.00;99.90
5304;DHT22;2674;49.722;10.892;2022-07-23T10:36:47;26.10;99.90
5304;DHT22;2674;49.722;10.892;2022-07-23T10:39:19;26.10;99.90
5304;DHT22;2674;49.722;10.892;2022-07-23T10:41:46;26.20;99.90
5304;DHT22;2674;49.722;10.892;2022-07-23T10:44:15;26.30;99.90
5304;DHT22;2674;49.722;10.892;2022-07-23T10:46:57;26.40;99.90
5304;DHT22;2674;49.722;10.892;2022-07-23T10:49:44;26.50;99.90
5304;DHT22;2674;49.722;10.892;2022-07-23T10:57:07;26.80;99.90
5304;DHT22;2674;49.722;10.892;2022-07-23T11:02:34;26.60;99.90
5304;DHT22;2674;49.722;10.892;2022-07-23T11:05:03;26.60;99.90
5304;DHT22;2674;49.722;10.892;2022-07-23T11:07:30;26.60;99.90
5304;DHT22;2674;49.722;10.892;2022-07-23T11:09:55;26.60;99.90
5304;DHT22;2674;49.722;10.892;2022-07-23T11:15:13;26.60;99.90
5304;DHT22;2674;49.722;10.892;2022-07-23T11:25:29;26.80;99.40
5304;DHT22;2674;49.722;10.892;2022-07-23T11:28:17;26.90;99.90
5304;DHT22;2674;49.722;10.892;2022-07-23T11:30:46;27.10;98.90
5304;DHT22;2674;49.722;10.892;2022-07-23T11:35:41;27.50;98.00
5304;DHT22;2674;49.722;10.892;2022-07-23T11:38:20;27.70;97.90
5304;DHT22;2674;49.722;10.892;2022-07-23T11:40:49;27.80;97.20
5304;DHT22;2674;49.722;10.892;2022-07-23T11:43:15;28.10;96.70
5304;DHT22;2674;49.722;10.892;2022-07-23T11:45:51;28.30;96.40
5304;DHT22;2674;49.722;10.892;2022-07-23T11:50:48;28.40;95.70
5304;DHT22;2674;49.722;10.892;2022-07-23T11:53:29;28.50;95.40
5304;DHT22;2674;49.722;10.892;2022-07-23T11:56:03;28.50;94.80
5304;DHT22;2674;49.722;10.892;2022-07-23T11:58:29;28.80;95.20
5304;DHT22;2674;49.722;10.892;2022-07-23T12:00:55;28.80;93.80
5304;DHT22;2674;49.722;10.892;2022-07-23T12:03:21;28.80;94.60
5304;DHT22;2674;49.722;10.892;2022-07-23T12:05:47;28.90;93.90
5304;DHT22;2674;49.722;10.892;2022-07-23T12:08:13;28.90;93.00
5304;DHT22;2674;49.722;10.892;2022-07-23T12:10:44;28.80;93.10
5304;DHT22;2674;49.722;10.892;2022-07-23T12:13:12;28.70;93.50
5304;DHT22;2674;49.722;10.892;2022-07-23T12:15:47;28.80;92.90
5304;DHT22;2674;49.722;10.892;2022-07-23T12:18:18;29.10;93.10
5304;DHT22;2674;49.722;10.892;2022-07-23T12:20:46;29.10;91.20
5304;DHT22;2674;49.722;10.892;2022-07-23T12:23:16;29.20;92.10
5304;DHT22;2674;49.722;10.892;2022-07-23T12:25:43;29.50;91.90
5304;DHT22;2674;49.722;10.892;2022-07-23T12:28:12;29.70;91.50
5304;DHT22;2674;49.722;10.892;2022-07-23T12:30:53;29.80;91.00
5304;DHT22;2674;49.722;10.892;2022-07-23T12:33:38;29.90;88.90
5304;DHT22;2674;49.722;10.892;2022-07-23T12:36:06;30.00;86.60
5304;DHT22;2674;49.722;10.892;2022-07-23T12:41:03;30.20;84.40
5304;DHT22;2674;49.722;10.892;2022-07-23T12:43:32;30.30;84.20
5304;DHT22;2674;49.722;10.892;2022-07-23T12:46:06;30.40;82.30
5304;DHT22;2674;49.722;10.892;2022-07-23T12:48:35;30.40;80.00
5304;DHT22;2674;49.722;10.892;2022-07-23T12:51:07;30.20;81.10
5304;DHT22;2674;49.722;10.892;2022-07-23T12:53:41;29.80;80.10
5304;DHT22;2674;49.722;10.892;2022-07-23T12:56:11;29.60;81.00
5304;DHT22;2674;49.722;10.892;2022-07-23T13:04:10;30.00;80.30
5304;DHT22;2674;49.722;10.892;2022-07-23T13:06:59;30.10;78.00
5304;DHT22;2674;49.722;10.892;2022-07-23T13:09:26;30.10;76.60
5304;DHT22;2674;49.722;10.892;2022-07-23T13:11:54;30.10;74.50
5304;DHT22;2674;49.722;10.892;2022-07-23T13:14:21;30.00;75.10
5304;DHT22;2674;49.722;10.892;2022-07-23T13:16:49;30.00;76.20
5304;DHT22;2674;49.722;10.892;2022-07-23T13:19:17;30.00;77.30
5304;DHT22;2674;49.722;10.892;2022-07-23T13:21:43;29.90;77.10
5304;DHT22;2674;49.722;10.892;2022-07-23T13:24:10;29.80;77.10
5304;DHT22;2674;49.722;10.892;2022-07-23T13:26:37;29.60;76.20
5304;DHT22;2674;49.722;10.892;2022-07-23T13:29:04;29.40;77.70
5304;DHT22;2674;49.722;10.892;2022-07-23T13:31:30;29.20;77.20
5304;DHT22;2674;49.722;10.892;2022-07-23T13:33:56;29.20;75.80
5304;DHT22;2674;49.722;10.892;2022-07-23T13:36:22;29.20;76.50
5304;DHT22;2674;49.722;10.892;2022-07-23T13:38:48;29.20;75.80
5304;DHT22;2674;49.722;10.892;2022-07-23T13:41:15;29.30;76.20
5304;DHT22;2674;49.722;10.892;2022-07-23T13:43:42;29.30;74.70
5304;DHT22;2674;49.722;10.892;2022-07-23T13:46:08;29.40;74.40
5304;DHT22;2674;49.722;10.892;2022-07-23T13:48:33;29.60;74.50
5304;DHT22;2674;49.722;10.892;2022-07-23T13:50:59;29.70;75.20
5304;DHT22;2674;49.722;10.892;2022-07-23T13:53:25;29.60;73.80
5304;DHT22;2674;49.722;10.892;2022-07-23T13:55:52;29.20;75.30
5304;DHT22;2674;49.722;10.892;2022-07-23T13:58:19;28.90;76.10
5304;DHT22;2674;49.722;10.892;2022-07-23T14:00:48;28.80;77.00
5304;DHT22;2674;49.722;10.892;2022-07-23T14:03:16;28.80;77.20
5304;DHT22;2674;49.722;10.892;2022-07-23T14:05:42;28.80;76.20
5304;DHT22;2674;49.722;10.892;2022-07-23T14:08:08;28.80;76.70
5304;DHT22;2674;49.722;10.892;2022-07-23T14:10:34;28.90;77.10
5304;DHT22;2674;49.722;10.892;2022-07-23T14:13:00;29.00;76.30
5304;DHT22;2674;49.722;10.892;2022-07-23T14:15:28;29.10;75.90
5304;DHT22;2674;49.722;10.892;2022-07-23T14:17:55;29.00;76.30
5304;DHT22;2674;49.722;10.892;2022-07-23T14:20:21;28.90;76.30
5304;DHT22;2674;49.722;10.892;2022-07-23T14:22:47;28.80;76.90
5304;DHT22;2674;49.722;10.892;2022-07-23T14:25:15;28.70;76.20
5304;DHT22;2674;49.722;10.892;2022-07-23T14:27:42;28.70;75.50
5304;DHT22;2674;49.722;10.892;2022-07-23T14:30:09;28.70;75.80
5304;DHT22;2674;49.722;10.892;2022-07-23T14:32:35;28.60;76.00
5304;DHT22;2674;49.722;10.892;2022-07-23T14:35:02;28.60;76.30
5304;DHT22;2674;49.722;10.892;2022-07-23T14:37:28;28.50;76.80
5304;DHT22;2674;49.722;10.892;2022-07-23T14:39:54;28.50;75.90
5304;DHT22;2674;49.722;10.892;2022-07-23T14:42:20;28.60;76.60
5304;DHT22;2674;49.722;10.892;2022-07-23T14:44:46;28.70;76.90
5304;DHT22;2674;49.722;10.892;2022-07-23T14:47:12;28.80;77.60
5304;DHT22;2674;49.722;10.892;2022-07-23T14:49:38;28.70;76.10
5304;DHT22;2674;49.722;10.892;2022-07-23T14:52:05;28.80;76.60
5304;DHT22;2674;49.722;10.892;2022-07-23T14:54:31;28.70;76.90
5304;DHT22;2674;49.722;10.892;2022-07-23T14:56:58;28.50;76.00
5304;DHT22;2674;49.722;10.892;2022-07-23T14:59:24;28.40;77.10
5304;DHT22;2674;49.722;10.892;2022-07-23T15:01:51;28.40;76.80
5304;DHT22;2674;49.722;10.892;2022-07-23T15:04:17;28.40;77.40
5304;DHT22;2674;49.722;10.892;2022-07-23T15:06:43;28.40;78.40
5304;DHT22;2674;49.722;10.892;2022-07-23T15:09:10;28.50;77.80
5304;DHT22;2674;49.722;10.892;2022-07-23T15:11:36;28.60;77.10
5304;DHT22;2674;49.722;10.892;2022-07-23T15:14:04;28.60;74.70
5304;DHT22;2674;49.722;10.892;2022-07-23T15:16:32;28.50;75.20
5304;DHT22;2674;49.722;10.892;2022-07-23T15:18:58;28.50;75.10
5304;DHT22;2674;49.722;10.892;2022-07-23T15:21:26;28.50;75.80
5304;DHT22;2674;49.722;10.892;2022-07-23T15:23:55;28.40;75.70
5304;DHT22;2674;49.722;10.892;2022-07-23T15:26:20;28.30;75.70
5304;DHT22;2674;49.722;10.892;2022-07-23T15:28:48;28.20;76.00
5304;DHT22;2674;49.722;10.892;2022-07-23T15:31:14;28.20;76.50
5304;DHT22;2674;49.722;10.892;2022-07-23T15:33:40;28.20;76.70
5304;DHT22;2674;49.722;10.892;2022-07-23T15:36:07;28.30;76.20
5304;DHT22;2674;49.722;10.892;2022-07-23T15:38:33;28.10;75.80
5304;DHT22;2674;49.722;10.892;2022-07-23T15:40:59;28.10;76.10
5304;DHT22;2674;49.722;10.892;2022-07-23T15:43:25;27.90;76.30
5304;DHT22;2674;49.722;10.892;2022-07-23T15:45:52;27.90;76.80
5304;DHT22;2674;49.722;10.892;2022-07-23T15:48:19;27.90;76.00
5304;DHT22;2674;49.722;10.892;2022-07-23T15:50:45;28.10;75.20
5304;DHT22;2674;49.722;10.892;2022-07-23T15:53:12;28.30;74.40
5304;DHT22;2674;49.722;10.892;2022-07-23T15:55:39;28.40;74.10
5304;DHT22;2674;49.722;10.892;2022-07-23T15:58:10;28.60;73.00
5304;DHT22;2674;49.722;10.892;2022-07-23T16:00:36;28.80;72.30
5304;DHT22;2674;49.722;10.892;2022-07-23T16:03:02;28.80;72.20
5304;DHT22;2674;49.722;10.892;2022-07-23T16:05:28;28.60;72.90
5304;DHT22;2674;49.722;10.892;2022-07-23T16:08:04;28.50;73.90
5304;DHT22;2674;49.722;10.892;2022-07-23T16:10:30;28.50;74.20
5304;DHT22;2674;49.722;10.892;2022-07-23T16:12:56;28.70;73.50
5304;DHT22;2674;49.722;10.892;2022-07-23T16:15:22;29.10;73.70
5304;DHT22;2674;49.722;10.892;2022-07-23T16:17:48;29.40;73.30
5304;DHT22;2674;49.722;10.892;2022-07-23T16:20:14;29.60;71.20
5304;DHT22;2674;49.722;10.892;2022-07-23T16:22:40;29.70;68.70
5304;DHT22;2674;49.722;10.892;2022-07-23T16:25:07;29.70;68.10
5304;DHT22;2674;49.722;10.892;2022-07-23T16:27:37;29.60;68.20
5304;DHT22;2674;49.722;10.892;2022-07-23T16:30:05;29.40;67.20
5304;DHT22;2674;49.722;10.892;2022-07-23T16:32:31;29.30;68.10
5304;DHT22;2674;49.722;10.892;2022-07-23T16:34:57;29.10;68.30
5304;DHT22;2674;49.722;10.892;2022-07-23T16:37:24;29.00;70.20
5304;DHT22;2674;49.722;10.892;2022-07-23T16:39:50;28.90;70.00
5304;DHT22;2674;49.722;10.892;2022-07-23T16:42:16;28.80;69.90
5304;DHT22;2674;49.722;10.892;2022-07-23T16:44:42;28.70;68.80
5304;DHT22;2674;49.722;10.892;2022-07-23T16:47:09;28.60;68.70
5304;DHT22;2674;49.722;10.892;2022-07-23T16:49:35;28.80;68.70
5304;DHT22;2674;49.722;10.892;2022-07-23T16:52:02;28.80;68.10
5304;DHT22;2674;49.722;10.892;2022-07-23T16:54:30;29.00;67.80
5304;DHT22;2674;49.722;10.892;2022-07-23T16:56:56;29.20;67.70
5304;DHT22;2674;49.722;10.892;2022-07-23T16:59:22;29.40;66.60
5304;DHT22;2674;49.722;10.892;2022-07-23T17:01:48;29.70;66.70
5304;DHT22;2674;49.722;10.892;2022-07-23T17:04:14;29.50;64.70
5304;DHT22;2674;49.722;10.892;2022-07-23T17:06:40;29.20;65.70
5304;DHT22;2674;49.722;10.892;2022-07-23T17:09:06;28.90;65.50
5304;DHT22;2674;49.722;10.892;2022-07-23T17:11:32;28.60;66.20
5304;DHT22;2674;49.722;10.892;2022-07-23T17:13:58;28.50;66.50
5304;DHT22;2674;49.722;10.892;2022-07-23T17:16:24;28.50;66.90
5304;DHT22;2674;49.722;10.892;2022-07-23T17:18:50;28.50;65.80
5304;DHT22;2674;49.722;10.892;2022-07-23T17:21:16;28.40;66.50